Time;durP1;ratioP1;P1;durP2;ratioP2;P2;SDS_P1;SDS_P2;PMS_P1;PMS_P2;Temp;Humidity;BMP_temperature;BMP_pressure;BME280_temperature;BME280_humidity;BME280_pressure;Samples;Min_cycle;Max_cycle;Signal;HPM_P1;HPM_P2
2022/02/14 00:01:20;;;;;;;2.72;1.17;;;;;;;5.80;39.11;99805.44;3412850;29;20055;-73
2022/02/14 00:03:01;;;;;;;2.85;1.42;;;;;;;5.81;38.93;99809.75;3401778;29;20043;-72
2022/02/14 00:04:42;;;;;;;3.47;1.73;;;;;;;5.79;38.87;99801.16;3413168;29;20095;-73
2022/02/14 00:06:23;;;;;;;2.80;1.63;;;;;;;5.76;38.82;99806.75;3416082;29;20046;-74
2022/02/14 00:08:04;;;;;;;2.97;2.03;;;;;;;5.76;38.88;99801.47;3415718;29;20134;-72
2022/02/14 00:09:44;;;;;;;5.55;1.80;;;;;;;5.75;38.93;99797.16;3408357;29;20075;-73
2022/02/14 00:11:25;;;;;;;2.65;1.90;;;;;;;5.63;39.05;99776.31;3415824;29;20123;-72
2022/02/14 00:13:06;;;;;;;3.22;2.00;;;;;;;5.66;38.81;99772.53;3415892;29;20043;-73
2022/02/14 00:14:46;;;;;;;1.92;1.73;;;;;;;5.69;38.97;99780.13;3416043;29;20066;-72
2022/02/14 00:16:27;;;;;;;2.42;1.30;;;;;;;5.72;39.13;99768.41;3416925;29;20518;-73
2022/02/14 00:18:08;;;;;;;2.72;1.63;;;;;;;5.75;39.17;99768.06;3416000;29;20558;-73
2022/02/14 00:19:50;;;;;;;5.70;1.58;;;;;;;5.74;39.06;99769.06;3416344;28;20035;-73
2022/02/14 00:21:31;;;;;;;3.53;1.52;;;;;;;5.70;39.14;99781.75;3401940;29;20591;-72
2022/02/14 00:23:12;;;;;;;2.25;1.60;;;;;;;5.68;39.05;99779.31;3412779;29;20445;-72
2022/02/14 00:24:53;;;;;;;2.53;1.63;;;;;;;5.67;39.22;99771.50;3402548;29;20043;-73
2022/02/14 00:26:34;;;;;;;4.55;1.55;;;;;;;5.66;39.16;99775.97;3413119;29;20089;-72
2022/02/14 00:28:16;;;;;;;7.82;1.85;;;;;;;5.67;38.99;99788.19;3415473;29;20039;-72
2022/02/14 00:29:57;;;;;;;3.17;1.45;;;;;;;5.69;38.93;99796.81;3401866;29;20573;-73
2022/02/14 00:31:37;;;;;;;2.88;1.45;;;;;;;5.70;39.15;99784.41;3412659;29;20042;-72
2022/02/14 00:33:18;;;;;;;2.42;1.63;;;;;;;5.76;39.47;99793.53;3415830;29;20399;-74
2022/02/14 00:34:59;;;;;;;3.28;1.52;;;;;;;5.80;39.33;99784.28;3416249;29;20043;-73
2022/02/14 00:36:41;;;;;;;1.80;1.27;;;;;;;5.82;39.51;99779.66;3415907;29;20031;-73
2022/02/14 00:38:23;;;;;;;1.75;1.40;;;;;;;5.87;39.41;99788.75;3415537;29;20050;-72
2022/02/14 00:40:05;;;;;;;1.73;1.60;;;;;;;5.88;39.54;99798.34;3415690;29;20081;-72
2022/02/14 00:41:45;;;;;;;3.90;1.63;;;;;;;5.86;39.41;99787.13;3412416;29;20090;-74
2022/02/14 00:43:26;;;;;;;3.90;1.80;;;;;;;5.84;39.37;99785.63;3415407;29;20109;-74
2022/02/14 00:45:07;;;;;;;2.45;1.50;;;;;;;5.84;39.73;99783.81;3415731;29;20035;-73
2022/02/14 00:46:49;;;;;;;3.65;1.20;;;;;;;5.90;39.77;99785.78;3401777;29;20036;-73
2022/02/14 00:48:30;;;;;;;2.72;1.90;;;;;;;5.96;39.91;99781.69;3412885;29;20085;-73
2022/02/14 00:50:11;;;;;;;2.83;1.58;;;;;;;6.00;39.59;99777.75;3401360;29;20062;-73
2022/02/14 00:51:52;;;;;;;2.28;1.45;;;;;;;5.98;39.59;99773.59;3412741;29;20046;-72
2022/02/14 00:53:33;;;;;;;3.20;1.98;;;;;;;5.94;39.61;99772.25;3401418;29;20044;-74
2022/02/14 00:55:15;;;;;;;2.28;1.83;;;;;;;5.95;39.56;99772.13;3412813;29;20046;-73
2022/02/14 00:56:56;;;;;;;3.72;2.15;;;;;;;5.93;39.68;99762.66;3415102;28;20538;-72
2022/02/14 00:58:37;;;;;;;1.80;1.65;;;;;;;5.87;39.50;99756.19;3400032;29;20094;-72
2022/02/14 01:00:18;;;;;;;3.67;1.65;;;;;;;5.87;39.57;99758.84;3412643;28;20043;-73
2022/02/14 01:01:59;;;;;;;2.63;1.60;;;;;;;5.86;39.58;99759.81;3415219;29;20079;-72
2022/02/14 01:03:40;;;;;;;3.97;1.42;;;;;;;5.85;39.72;99753.72;3415528;29;20406;-73
2022/02/14 01:05:21;;;;;;;2.58;1.70;;;;;;;5.78;39.65;99742.16;3414761;29;20043;-72
2022/02/14 01:07:02;;;;;;;3.28;1.70;;;;;;;5.84;39.48;99745.94;3401270;29;20048;-72
2022/02/14 01:08:42;;;;;;;2.97;1.65;;;;;;;5.82;39.62;99748.75;3412190;29;20544;-72
2022/02/14 01:10:23;;;;;;;3.03;1.58;;;;;;;5.80;39.66;99755.19;3415512;28;20035;-71
2022/02/14 01:12:04;;;;;;;1.83;1.45;;;;;;;5.75;39.46;99747.72;3415469;29;20102;-72
2022/02/14 01:13:45;;;;;;;3.88;2.58;;;;;;;5.74;39.40;99754.03;3401276;29;20035;-72
2022/02/14 01:15:26;;;;;;;2.05;1.40;;;;;;;5.76;39.81;99757.34;3412940;29;20050;-74
2022/02/14 01:17:07;;;;;;;2.75;1.58;;;;;;;5.78;40.10;99746.59;3415260;29;20039;-73
2022/02/14 01:18:49;;;;;;;3.63;1.42;;;;;;;5.80;39.89;99747.25;3415227;29;20039;-73
2022/02/14 01:20:29;;;;;;;2.10;1.70;;;;;;;5.77;39.89;99745.75;3415197;29;20043;-73
2022/02/14 01:22:11;;;;;;;5.20;1.65;;;;;;;5.76;40.04;99751.22;3401060;29;20540;-72
2022/02/14 01:23:51;;;;;;;2.08;1.42;;;;;;;5.77;39.78;99747.59;3412872;29;20402;-73
2022/02/14 01:25:32;;;;;;;3.13;1.67;;;;;;;5.74;39.72;99737.34;3415165;29;20071;-73
2022/02/14 01:27:13;;;;;;;6.70;1.92;;;;;;;5.71;39.71;99741.13;3414797;29;20042;-73
2022/02/14 01:28:53;;;;;;;3.10;1.58;;;;;;;5.68;39.71;99737.00;3408594;28;20039;-72
2022/02/14 01:30:34;;;;;;;4.32;2.08;;;;;;;5.70;39.74;99731.53;3415000;28;20047;-72
2022/02/14 01:32:19;;;;;;;3.65;1.63;;;;;;;5.68;39.62;99746.75;3414671;29;20083;-72
2022/02/14 01:34:01;;;;;;;2.03;1.65;;;;;;;5.64;39.59;99732.19;3415237;29;20061;-71
2022/02/14 01:35:43;;;;;;;3.65;1.60;;;;;;;5.68;39.83;99731.72;3415039;29;20047;-72
2022/02/14 01:37:23;;;;;;;3.20;1.47;;;;;;;5.74;39.84;99734.69;3414546;29;20071;-73
2022/02/14 01:39:04;;;;;;;4.88;2.15;;;;;;;5.75;39.78;99734.50;3415234;29;20039;-72
2022/02/14 01:40:45;;;;;;;4.93;1.50;;;;;;;5.74;39.65;99713.53;3414897;29;20057;-73
2022/02/14 01:42:25;;;;;;;6.53;1.95;;;;;;;5.78;39.82;99730.72;3414821;29;20046;-72
2022/02/14 01:44:33;;;;;;;3.33;1.83;;;;;;;5.88;39.81;99739.34;3414877;29;20129;-73
2022/02/14 01:46:14;;;;;;;2.97;1.83;;;;;;;5.86;40.00;99722.78;3414894;29;20537;-72
2022/02/14 01:47:56;;;;;;;1.45;1.35;;;;;;;5.85;39.60;99726.44;3415364;29;20123;-73
2022/02/14 01:49:36;;;;;;;2.78;1.85;;;;;;;5.84;39.43;99722.16;3414850;29;20396;-73
2022/02/14 01:51:17;;;;;;;3.15;2.00;;;;;;;5.77;39.45;99716.66;3414423;29;20126;-73
2022/02/14 01:52:58;;;;;;;3.97;1.88;;;;;;;5.76;39.84;99717.66;3401230;29;20095;-72
2022/02/14 01:54:43;;;;;;;2.03;1.38;;;;;;;5.72;39.40;99712.88;3397850;29;20519;-72
2022/02/14 01:56:23;;;;;;;2.75;1.70;;;;;;;5.72;39.31;99711.03;3412503;29;20043;-73
2022/02/14 01:58:04;;;;;;;1.67;1.17;;;;;;;5.71;39.40;99713.88;3414522;29;20042;-72
2022/02/14 01:59:46;;;;;;;1.55;1.35;;;;;;;5.68;39.35;99705.25;3413977;28;20043;-73
2022/02/14 02:01:26;;;;;;;2.72;1.77;;;;;;;5.66;39.21;99696.66;3414659;29;20062;-74
2022/02/14 02:03:07;;;;;;;1.65;1.10;;;;;;;5.64;39.46;99711.03;3400198;29;20039;-73
2022/02/14 02:04:48;;;;;;;3.90;1.55;;;;;;;5.61;39.44;99693.69;3411999;29;20462;-73
2022/02/14 02:06:28;;;;;;;1.70;1.33;;;;;;;5.58;39.60;99694.00;3414751;29;20047;-73
2022/02/14 02:08:09;;;;;;;3.05;1.50;;;;;;;5.54;39.44;99692.66;3414270;28;20039;-74
2022/02/14 02:09:50;;;;;;;2.65;1.20;;;;;;;5.53;39.90;99704.25;3413231;28;20046;-73
2022/02/14 02:13:30;;;;;;;2.83;1.23;;;;;;;5.56;39.79;99685.41;3414237;29;20050;-73
2022/02/14 02:15:10;;;;;;;2.65;1.80;;;;;;;5.61;39.81;99688.38;3414693;29;20051;-72
2022/02/14 02:16:51;;;;;;;1.23;1.15;;;;;;;5.61;39.52;99687.56;3415212;29;20118;-72
2022/02/14 02:18:32;;;;;;;2.35;1.42;;;;;;;5.61;39.76;99693.69;3414621;29;20047;-72
2022/02/14 02:20:15;;;;;;;1.73;1.58;;;;;;;5.64;39.99;99703.91;3399672;29;20283;-72
2022/02/14 02:21:55;;;;;;;1.67;1.08;;;;;;;5.66;40.07;99691.38;3412190;29;20474;-73
2022/02/14 02:23:40;;;;;;;5.55;1.65;;;;;;;5.69;40.08;99687.56;3400229;29;20039;-73
2022/02/14 02:25:21;;;;;;;3.45;1.70;;;;;;;5.71;39.94;99684.78;3398283;29;20043;-73
2022/02/14 02:27:04;;;;;;;2.95;1.23;;;;;;;5.76;39.96;99696.53;3411431;29;20070;-73
2022/02/14 02:28:46;;;;;;;1.90;1.52;;;;;;;5.77;39.96;99705.28;3413585;29;20043;-73
2022/02/14 02:30:29;;;;;;;6.00;1.65;;;;;;;5.78;39.98;99694.53;3414239;28;20090;-72
2022/02/14 02:32:11;;;;;;;4.30;2.00;;;;;;;5.79;39.92;99696.19;3414331;29;20039;-72
2022/02/14 02:33:52;;;;;;;2.63;1.67;;;;;;;5.82;39.89;99700.31;3414497;29;20043;-72
2022/02/14 02:35:32;;;;;;;5.00;2.00;;;;;;;5.79;39.98;99690.91;3414419;29;20113;-72
2022/02/14 02:37:15;;;;;;;2.45;1.40;;;;;;;5.78;40.03;99693.69;3414292;29;20075;-71
2022/02/14 02:38:56;;;;;;;3.03;1.85;;;;;;;5.73;39.66;99693.34;3414621;29;20070;-73
2022/02/14 02:40:37;;;;;;;5.10;1.75;;;;;;;5.67;39.64;99692.19;3413974;28;20035;-72
2022/02/14 02:42:19;;;;;;;4.47;2.00;;;;;;;5.60;39.65;99686.75;3399909;29;20104;-71
2022/02/14 02:44:00;;;;;;;2.88;1.25;;;;;;;5.58;39.58;99687.91;3411817;29;20086;-73
2022/02/14 02:45:41;;;;;;;3.25;1.67;;;;;;;5.57;39.65;99676.47;3413777;29;20142;-74
2022/02/14 02:47:23;;;;;;;4.85;2.08;;;;;;;5.58;39.70;99678.16;3411903;29;20074;-72
2022/02/14 02:49:10;;;;;;;;;;;;;;;5.71;39.65;99680.31;3409846;29;20074;-74
2022/02/14 02:51:04;;;;;;;2.65;1.63;;;;;;;5.62;39.52;99670.72;3400119;29;20019;-72
2022/02/14 02:52:45;;;;;;;5.28;1.77;;;;;;;5.62;39.47;99679.47;3406355;29;20074;-73
2022/02/14 02:54:27;;;;;;;2.65;1.55;;;;;;;5.61;39.78;99688.38;3399563;29;20523;-73
2022/02/14 02:56:08;;;;;;;4.28;2.60;;;;;;;5.61;39.85;99677.00;3411734;29;20129;-73
2022/02/14 02:57:48;;;;;;;3.20;1.80;;;;;;;5.63;39.70;99672.38;3399734;29;20090;-73
2022/02/14 02:59:33;;;;;;;3.53;1.73;;;;;;;5.69;40.11;99669.88;3410818;29;20122;-75
2022/02/14 03:01:14;;;;;;;5.20;1.70;;;;;;;5.74;40.04;99673.88;3413875;29;20047;-73
2022/02/14 03:02:55;;;;;;;1.65;1.30;;;;;;;5.77;40.07;99670.91;3414270;29;20569;-74
2022/02/14 03:04:37;;;;;;;2.08;1.58;;;;;;;5.80;40.10;99678.50;3399273;29;20109;-73
2022/02/14 03:06:17;;;;;;;4.32;1.88;;;;;;;5.79;40.02;99663.63;3410741;29;20031;-72
2022/02/14 03:07:58;;;;;;;2.60;1.40;;;;;;;5.77;39.98;99665.59;3399798;29;20046;-73
2022/02/14 03:09:39;;;;;;;2.38;1.52;;;;;;;5.74;39.76;99665.94;3410951;28;20035;-73
2022/02/14 03:11:20;;;;;;;3.40;1.65;;;;;;;5.69;39.92;99659.31;3413690;29;20082;-74
2022/02/14 03:13:01;;;;;;;1.67;1.43;;;;;;;5.73;40.07;99654.53;3413987;29;20140;-74
2022/02/14 03:14:42;;;;;;;2.10;1.50;;;;;;;5.74;40.16;99650.91;3414223;29;20900;-74
2022/02/14 03:16:23;;;;;;;4.57;1.88;;;;;;;5.75;40.48;99646.44;3414259;29;20043;-73
2022/02/14 03:18:05;;;;;;;3.25;1.92;;;;;;;5.73;40.33;99637.81;3413571;29;20445;-72
2022/02/14 03:19:45;;;;;;;3.35;2.10;;;;;;;5.73;40.33;99638.69;3413613;28;20043;-73
2022/02/14 03:21:26;;;;;;;2.15;1.77;;;;;;;5.68;40.19;99641.81;3399131;29;20035;-72
2022/02/14 03:23:07;;;;;;;2.65;1.95;;;;;;;5.68;40.39;99639.16;3396437;29;20058;-71
2022/02/14 03:24:48;;;;;;;2.90;1.77;;;;;;;5.66;40.40;99627.09;3411281;29;20161;-72
2022/02/14 03:26:29;;;;;;;1.52;1.30;;;;;;;5.67;40.39;99629.56;3413796;29;20134;-72
2022/02/14 03:28:09;;;;;;;2.20;1.17;;;;;;;5.72;40.35;99636.19;3413682;29;20470;-73
2022/02/14 03:29:50;;;;;;;1.90;1.40;;;;;;;5.73;40.44;99633.38;3413835;28;20141;-73
2022/02/14 03:31:31;;;;;;;4.50;1.77;;;;;;;5.72;40.45;99630.91;3414138;29;20066;-73
2022/02/14 03:33:11;;;;;;;6.20;1.85;;;;;;;5.75;40.46;99635.84;3413814;29;20229;-71
2022/02/14 03:34:52;;;;;;;2.22;1.50;;;;;;;5.71;40.44;99637.19;3414178;29;20139;-72
2022/02/14 03:36:33;;;;;;;3.25;1.63;;;;;;;5.68;40.49;99643.63;3413778;29;20153;-72
2022/02/14 03:38:14;;;;;;;3.30;1.85;;;;;;;5.63;40.38;99644.13;3398774;29;20051;-72
2022/02/14 03:39:55;;;;;;;3.15;1.75;;;;;;;5.58;40.50;99646.41;3397233;29;20040;-72
2022/02/14 03:41:35;;;;;;;3.72;1.50;;;;;;;5.57;40.68;99641.28;3396447;29;20071;-73
2022/02/14 03:43:16;;;;;;;3.63;1.95;;;;;;;5.58;40.75;99646.41;3410433;29;20125;-73
2022/02/14 03:44:57;;;;;;;3.10;1.52;;;;;;;5.61;40.71;99643.44;3413768;29;20046;-73
2022/02/14 03:46:37;;;;;;;4.47;2.13;;;;;;;5.64;40.79;99637.81;3412734;29;20035;-72
2022/02/14 03:48:18;;;;;;;1.83;1.38;;;;;;;5.63;40.66;99630.91;3412734;29;20039;-73
2022/02/14 03:49:59;;;;;;;3.60;1.73;;;;;;;5.62;40.59;99645.09;3399357;29;20510;-73
2022/02/14 03:51:40;;;;;;;5.00;2.10;;;;;;;5.63;40.56;99638.00;3409936;29;20046;-73
2022/02/14 03:53:22;;;;;;;1.85;1.52;;;;;;;5.67;40.75;99640.13;3398920;29;20556;-75
2022/02/14 03:55:03;;;;;;;3.15;1.73;;;;;;;5.66;40.66;99627.09;3410955;29;20045;-75
2022/02/14 03:56:43;;;;;;;2.35;1.77;;;;;;;5.61;40.61;99624.94;3413339;29;20070;-75
2022/02/14 03:58:24;;;;;;;3.25;1.70;;;;;;;5.62;40.65;99631.88;3413139;29;21144;-72
2022/02/14 04:00:08;;;;;;;2.35;1.48;;;;;;;5.60;40.75;99636.53;3413781;29;20125;-75
2022/02/14 04:01:52;;;;;;;2.42;1.30;;;;;;;5.60;40.77;99635.66;3413576;29;20570;-73
2022/02/14 04:03:33;;;;;;;3.95;1.40;;;;;;;5.58;40.72;99630.56;3399127;29;20043;-74
2022/02/14 04:05:16;;;;;;;4.00;2.10;;;;;;;5.58;40.74;99635.03;3410441;29;20469;-74
2022/02/14 04:06:57;;;;;;;4.13;1.73;;;;;;;5.56;40.95;99621.13;3398019;29;20043;-73
2022/02/14 04:08:37;;;;;;;3.92;1.60;;;;;;;5.58;40.74;99637.66;3410293;29;20063;-72
2022/02/14 04:10:18;;;;;;;4.05;1.73;;;;;;;5.58;40.91;99627.91;3413125;28;20117;-73
2022/02/14 04:11:59;;;;;;;6.05;1.92;;;;;;;5.59;40.94;99632.19;3413660;29;20039;-74
2022/02/14 04:13:39;;;;;;;2.25;1.50;;;;;;;5.59;40.81;99631.38;3413372;29;20071;-75
2022/02/14 04:15:21;;;;;;;1.90;1.35;;;;;;;5.55;40.80;99630.91;3413294;29;20043;-73
2022/02/14 04:17:01;;;;;;;3.95;1.83;;;;;;;5.55;40.67;99636.19;3398394;29;20123;-74
2022/02/14 04:18:42;;;;;;;3.03;2.00;;;;;;;5.53;41.11;99645.25;3399374;29;20438;-74
2022/02/14 04:20:23;;;;;;;2.38;1.73;;;;;;;5.46;40.85;99637.97;3410515;28;20035;-73
2022/02/14 04:22:03;;;;;;;5.03;2.15;;;;;;;5.40;40.88;99632.53;3413569;29;20039;-72
2022/02/14 04:23:44;;;;;;;2.35;1.58;;;;;;;5.40;40.67;99640.44;3412450;29;20046;-74
2022/02/14 04:25:25;;;;;;;3.80;1.73;;;;;;;5.39;40.90;99642.25;3412958;29;20672;-74
2022/02/14 04:27:05;;;;;;;3.45;1.85;;;;;;;5.38;41.03;99629.22;3385534;29;20032;-75
2022/02/14 04:28:46;;;;;;;1.90;1.35;;;;;;;5.36;41.05;99634.66;3403721;29;20070;-74
2022/02/14 04:30:29;;;;;;;3.55;2.22;;;;;;;5.31;40.88;99630.84;3399413;29;20043;-73
2022/02/14 04:32:10;;;;;;;4.10;1.50;;;;;;;5.33;41.06;99642.06;3411206;28;20035;-73
2022/02/14 04:33:50;;;;;;;2.00;1.63;;;;;;;5.31;40.98;99638.75;3416560;29;20039;-72
2022/02/14 04:35:33;;;;;;;3.60;1.80;;;;;;;5.29;41.06;99641.56;3402606;29;20072;-74
2022/02/14 04:37:16;;;;;;;1.52;1.33;;;;;;;5.31;41.20;99646.69;3414413;29;20054;-74
2022/02/14 04:38:56;;;;;;;2.15;1.52;;;;;;;5.33;41.16;99642.06;3416482;29;20035;-76
2022/02/14 04:40:39;;;;;;;2.00;1.67;;;;;;;5.36;41.19;99636.47;3415396;29;20046;-76
2022/02/14 04:42:20;;;;;;;1.85;1.45;;;;;;;5.40;41.41;99632.53;3415288;29;20031;-73
2022/02/14 04:44:00;;;;;;;2.05;1.50;;;;;;;5.42;41.60;99630.53;3415729;29;20156;-74
2022/02/14 04:45:41;;;;;;;2.88;1.73;;;;;;;5.46;41.74;99630.03;3416077;29;20105;-74
2022/02/14 04:47:22;;;;;;;4.72;1.75;;;;;;;5.56;41.44;99637.81;3401477;29;20048;-75
2022/02/14 04:49:07;;;;;;;1.83;1.55;;;;;;;5.60;41.50;99625.09;3416290;29;20043;-72
2022/02/14 04:50:47;;;;;;;3.60;1.40;;;;;;;5.60;41.45;99630.38;3412381;29;20035;-73
2022/02/14 04:52:28;;;;;;;4.70;1.80;;;;;;;5.58;41.51;99630.56;3406229;29;20419;-74
2022/02/14 04:54:09;;;;;;;3.20;2.03;;;;;;;5.56;41.51;99631.72;3417367;29;20059;-74
2022/02/14 04:55:50;;;;;;;4.27;1.93;;;;;;;5.53;41.40;99630.22;3420488;29;20094;-73
2022/02/14 04:57:30;;;;;;;4.05;1.70;;;;;;;5.50;41.28;99622.63;3403165;29;20083;-74
2022/02/14 04:59:14;;;;;;;2.30;2.10;;;;;;;5.47;41.30;99612.34;3413088;29;20118;-73
2022/02/14 05:00:55;;;;;;;4.93;2.47;;;;;;;5.46;41.37;99608.06;3415240;29;20552;-73
2022/02/14 05:02:35;;;;;;;2.75;1.73;;;;;;;5.48;41.50;99614.03;3414913;29;20103;-74
2022/02/14 05:04:17;;;;;;;2.78;1.52;;;;;;;5.44;41.60;99610.88;3400745;29;20099;-74
2022/02/14 05:05:58;;;;;;;2.85;2.35;;;;;;;5.45;41.71;99614.34;3413171;29;20043;-74
2022/02/14 05:07:39;;;;;;;4.35;2.03;;;;;;;5.43;41.68;99611.88;3415335;29;20039;-74
2022/02/14 05:09:20;;;;;;;2.65;1.50;;;;;;;5.42;41.74;99615.50;3400695;29;20042;-73
2022/02/14 05:11:02;;;;;;;3.80;1.48;;;;;;;5.42;41.75;99615.50;3401029;29;20043;-73
2022/02/14 05:12:43;;;;;;;2.03;1.40;;;;;;;5.47;41.74;99621.13;3407542;29;20059;-73
2022/02/14 05:14:23;;;;;;;4.13;1.80;;;;;;;5.50;41.70;99625.28;3401238;29;20050;-72
2022/02/14 05:16:04;;;;;;;2.40;1.80;;;;;;;5.51;42.03;99621.63;3412650;29;20047;-73
2022/02/14 05:17:45;;;;;;;4.38;1.83;;;;;;;5.58;42.02;99629.75;3408100;29;20051;-73
2022/02/14 05:19:25;;;;;;;3.08;2.00;;;;;;;5.60;42.04;99633.88;3415510;29;20039;-73
2022/02/14 05:21:06;;;;;;;2.65;2.00;;;;;;;5.60;41.94;99633.88;3415307;28;20130;-73
2022/02/14 05:22:47;;;;;;;4.20;2.00;;;;;;;5.62;41.94;99621.28;3415202;29;20503;-72
2022/02/14 05:24:28;;;;;;;1.70;1.60;;;;;;;5.68;41.87;99633.88;3401018;29;20169;-73
2022/02/14 05:26:09;;;;;;;2.13;1.55;;;;;;;5.74;41.94;99626.28;3411313;29;20077;-75
2022/02/14 05:27:49;;;;;;;4.25;2.00;;;;;;;5.79;42.10;99631.91;3415365;29;20043;-74
2022/02/14 05:29:30;;;;;;;3.13;1.67;;;;;;;5.80;41.90;99626.44;3400871;29;20036;-73
2022/02/14 05:31:11;;;;;;;5.32;1.73;;;;;;;5.81;41.77;99635.22;3397935;29;20044;-73
2022/02/14 05:32:51;;;;;;;1.52;1.42;;;;;;;5.81;41.83;99640.50;3412146;29;20126;-74
2022/02/14 05:34:32;;;;;;;2.58;2.10;;;;;;;5.82;41.76;99642.13;3414891;29;20067;-74
2022/02/14 05:36:13;;;;;;;3.67;1.98;;;;;;;5.77;41.83;99649.75;3415086;29;20097;-74
2022/02/14 05:37:53;;;;;;;2.17;1.60;;;;;;;5.78;41.78;99640.81;3415372;29;20043;-73
2022/02/14 05:39:34;;;;;;;2.45;1.73;;;;;;;5.75;41.72;99638.50;3414869;29;20050;-74
2022/02/14 05:41:15;;;;;;;2.53;1.75;;;;;;;5.75;41.70;99631.38;3414176;29;20525;-73
2022/02/14 05:42:56;;;;;;;1.77;1.50;;;;;;;5.78;41.70;99630.22;3415047;28;20043;-74
2022/02/14 05:44:36;;;;;;;2.78;2.13;;;;;;;5.87;41.88;99626.59;3387356;29;20036;-74
2022/02/14 05:46:17;;;;;;;4.40;1.48;;;;;;;5.91;41.72;99630.56;3409086;29;20043;-73
2022/02/14 05:47:58;;;;;;;3.95;1.98;;;;;;;5.90;41.71;99628.91;3414964;29;20055;-73
2022/02/14 05:49:38;;;;;;;3.90;1.90;;;;;;;5.91;41.59;99630.56;3426720;28;20047;-74
2022/02/14 05:51:19;;;;;;;4.05;1.77;;;;;;;5.93;41.45;99623.28;3416440;28;20525;-74
2022/02/14 05:53:00;;;;;;;5.75;2.65;;;;;;;5.93;41.74;99625.94;3391846;29;20084;-73
2022/02/14 05:54:41;;;;;;;5.97;2.13;;;;;;;5.92;41.92;99629.56;3416988;28;20043;-72
2022/02/14 05:56:22;;;;;;;7.28;1.85;;;;;;;5.92;41.71;99631.41;3410592;28;20043;-73
2022/02/14 05:58:03;;;;;;;3.35;1.60;;;;;;;5.93;41.66;99635.69;3400582;29;20084;-74
2022/02/14 05:59:44;;;;;;;4.43;1.83;;;;;;;5.94;41.57;99640.84;3377196;29;20365;-75
2022/02/14 06:01:24;;;;;;;2.10;1.52;;;;;;;5.95;41.78;99642.50;3409020;29;20045;-71
2022/02/14 06:03:05;;;;;;;3.88;1.80;;;;;;;5.96;41.78;99636.19;3399840;29;20051;-71
2022/02/14 06:04:46;;;;;;;3.80;1.98;;;;;;;5.96;41.83;99638.84;3411132;29;20165;-73
2022/02/14 06:06:26;;;;;;;4.38;2.22;;;;;;;5.97;41.80;99632.59;3413857;29;20073;-74
2022/02/14 06:08:07;;;;;;;3.17;2.03;;;;;;;6.01;41.50;99636.53;3399915;29;20047;-74
2022/02/14 06:09:48;;;;;;;3.17;1.80;;;;;;;6.07;41.60;99646.47;3410918;29;20039;-73
2022/02/14 06:11:29;;;;;;;2.70;1.38;;;;;;;6.11;41.70;99642.47;3414471;28;20078;-72
2022/02/14 06:13:09;;;;;;;2.75;2.15;;;;;;;6.17;41.46;99637.50;3413840;29;20035;-73
2022/02/14 06:14:50;;;;;;;5.32;1.92;;;;;;;6.21;41.65;99630.91;3414748;29;20051;-75
2022/02/14 06:16:31;;;;;;;2.65;1.77;;;;;;;6.22;41.52;99632.53;3413593;29;20252;-75
2022/02/14 06:18:12;;;;;;;3.13;2.00;;;;;;;6.24;41.38;99633.22;3414410;29;20043;-74
2022/02/14 06:19:53;;;;;;;4.20;1.83;;;;;;;6.24;41.24;99630.56;3414939;29;20046;-74
2022/02/14 06:21:33;;;;;;;4.65;2.28;;;;;;;6.29;41.22;99633.53;3399618;29;20530;-74
2022/02/14 06:23:14;;;;;;;5.10;2.30;;;;;;;6.31;41.19;99636.84;3411053;29;20145;-74
2022/02/14 06:24:55;;;;;;;3.55;2.17;;;;;;;6.35;41.23;99635.53;3414678;29;20039;-73
2022/02/14 06:26:36;;;;;;;3.25;1.90;;;;;;;6.36;41.18;99634.53;3414137;29;20053;-72
2022/02/14 06:28:16;;;;;;;3.13;1.88;;;;;;;6.36;41.06;99634.53;3414590;29;20092;-74
2022/02/14 06:29:57;;;;;;;2.70;1.73;;;;;;;6.41;41.04;99637.47;3400891;29;20055;-73
2022/02/14 06:31:38;;;;;;;4.15;2.50;;;;;;;6.43;40.79;99624.91;3412600;29;20134;-73
2022/02/14 06:33:19;;;;;;;3.57;2.13;;;;;;;6.48;41.04;99627.88;3415031;29;20391;-77
2022/02/14 06:35:02;;;;;;;3.65;1.83;;;;;;;6.63;40.87;99635.09;3403207;29;20112;-74
2022/02/14 06:36:43;;;;;;;2.03;1.50;;;;;;;6.76;40.91;99641.53;3412322;29;20423;-71
2022/02/14 06:38:24;;;;;;;2.10;1.77;;;;;;;6.87;40.92;99650.94;3414386;29;20043;-72
2022/02/14 06:40:06;;;;;;;4.22;2.13;;;;;;;6.96;40.75;99639.28;3399758;29;20098;-73
2022/02/14 06:41:47;;;;;;;2.17;1.77;;;;;;;7.12;40.90;99646.31;3411505;29;20047;-76
2022/02/14 06:43:28;;;;;;;4.30;2.05;;;;;;;7.25;40.48;99637.81;3414371;29;20385;-75
2022/02/14 06:45:09;;;;;;;3.22;1.83;;;;;;;7.39;40.32;99636.25;3414748;29;20101;-74
2022/02/14 06:46:51;;;;;;;3.72;2.28;;;;;;;7.53;40.05;99632.84;3400621;29;20067;-76
2022/02/14 06:48:32;;;;;;;4.00;2.05;;;;;;;7.79;39.89;99637.78;3397743;29;20100;-75
2022/02/14 06:50:13;;;;;;;5.05;2.83;;;;;;;8.03;39.73;99636.78;3397359;29;20035;-76
2022/02/14 06:51:54;;;;;;;3.65;1.80;;;;;;;8.24;39.50;99628.13;3411043;29;20062;-76
2022/02/14 06:53:35;;;;;;;4.28;1.98;;;;;;;8.49;39.40;99630.53;3413472;29;20383;-75
2022/02/14 06:55:17;;;;;;;3.88;2.13;;;;;;;8.64;39.29;99615.44;3413875;28;20050;-78
2022/02/14 06:56:57;;;;;;;38.83;4.78;;;;;;;8.92;38.86;99633.38;3400577;29;20075;-75
2022/02/14 06:58:39;;;;;;;8.98;2.10;;;;;;;9.10;38.96;99631.16;3411953;29;20047;-79
2022/02/14 07:00:20;;;;;;;2.28;1.80;;;;;;;9.25;38.83;99632.97;3414059;29;20134;-79
2022/02/14 07:02:01;;;;;;;2.65;1.67;;;;;;;9.36;38.70;99635.13;3414329;29;20109;-80
2022/02/14 07:03:42;;;;;;;3.35;2.25;;;;;;;9.57;38.60;99629.00;3414547;29;20118;-80
2022/02/14 07:05:25;;;;;;;7.85;2.15;;;;;;;9.83;38.34;99631.09;3400794;29;20052;-76
2022/02/14 07:07:05;;;;;;;4.53;2.83;;;;;;;10.15;38.17;99635.06;3397166;29;20523;-76
2022/02/14 07:08:46;;;;;;;4.68;2.50;;;;;;;10.48;38.18;99639.84;3385833;29;20044;-78
2022/02/14 07:10:27;;;;;;;3.42;1.55;;;;;;;10.79;37.78;99636.72;3408539;28;20031;-76
2022/02/14 07:12:08;;;;;;;3.08;1.92;;;;;;;10.97;37.08;99619.38;3413385;29;20039;-76
2022/02/14 07:13:49;;;;;;;7.27;3.13;;;;;;;11.11;36.70;99631.75;3399448;29;20043;-77
2022/02/14 07:15:29;;;;;;;3.75;2.17;;;;;;;11.31;37.25;99629.16;3411168;29;20046;-74
2022/02/14 07:17:11;;;;;;;4.68;2.10;;;;;;;11.48;37.72;99630.41;3413900;29;20145;-77
2022/02/14 07:18:52;;;;;;;2.03;1.80;;;;;;;11.56;37.59;99629.41;3414222;29;20159;-76
2022/02/14 07:20:33;;;;;;;5.20;2.13;;;;;;;11.53;37.65;99616.47;3413298;28;20125;-75
2022/02/14 07:22:14;;;;;;;4.28;2.28;;;;;;;11.58;36.80;99624.69;3413582;29;20046;-75
2022/02/14 07:23:54;;;;;;;4.55;2.15;;;;;;;11.55;36.43;99630.44;3399991;29;20039;-75
2022/02/14 07:25:36;;;;;;;4.30;2.25;;;;;;;11.60;36.24;99625.31;3411337;29;20054;-76
2022/02/14 07:27:16;;;;;;;5.55;2.53;;;;;;;11.69;36.35;99620.59;3413527;29;20039;-75
2022/02/14 07:28:58;;;;;;;2.83;2.13;;;;;;;11.99;36.18;99631.75;3386588;29;20169;-75
2022/02/14 07:30:39;;;;;;;4.53;2.30;;;;;;;12.37;36.06;99631.13;3408189;29;20058;-77
2022/02/14 07:32:20;;;;;;;3.90;2.75;;;;;;;12.80;35.70;99633.28;3412796;29;22148;-79
2022/02/14 07:34:00;;;;;;;3.40;2.40;;;;;;;13.14;35.47;99617.91;3399371;29;20050;-75
2022/02/14 07:35:41;;;;;;;3.78;2.35;;;;;;;13.47;34.90;99621.28;3409607;29;20050;-76
2022/02/14 07:37:23;;;;;;;4.78;2.70;;;;;;;13.73;34.49;99614.94;3398815;29;20503;-74
2022/02/14 07:39:04;;;;;;;4.57;2.13;;;;;;;13.91;34.15;99610.69;3411244;29;20035;-76
2022/02/14 07:40:45;;;;;;;5.18;2.30;;;;;;;14.14;33.62;99618.13;3406128;28;20039;-76
2022/02/14 07:42:31;;;;;;;4.53;2.28;;;;;;;14.34;33.89;99620.63;3412378;29;20051;-75
2022/02/14 07:44:13;;;;;;;5.15;2.50;;;;;;;14.57;33.60;99607.44;3410672;29;20175;-77
2022/02/14 07:45:54;;;;;;;8.55;2.55;;;;;;;14.74;33.10;99622.91;3414020;29;20106;-77
2022/02/14 07:47:35;;;;;;;3.72;2.45;;;;;;;14.86;32.31;99620.31;3414929;29;21910;-75
2022/02/14 07:49:17;;;;;;;4.00;2.45;;;;;;;14.99;31.97;99617.47;3415370;29;20430;-75
2022/02/14 07:50:58;;;;;;;;;;;;;;;15.28;32.29;99618.53;3402934;29;20048;-75
2022/02/14 07:52:40;;;;;;;3.95;2.53;;;;;;;15.35;31.22;99623.84;3412802;29;19914;-77
2022/02/14 07:54:21;;;;;;;6.22;2.70;;;;;;;15.46;30.76;99620.38;3415471;29;20043;-76
2022/02/14 07:56:01;;;;;;;5.30;2.55;;;;;;;15.42;30.52;99625.38;3415589;29;20050;-77
2022/02/14 07:57:42;;;;;;;3.83;2.45;;;;;;;15.36;30.37;99617.41;3415377;29;20573;-77
2022/02/14 07:59:23;;;;;;;5.50;2.75;;;;;;;15.23;30.45;99619.25;3412360;29;20046;-77
2022/02/14 08:01:04;;;;;;;2.67;2.45;;;;;;;15.08;30.92;99626.06;3411713;28;20585;-77
2022/02/14 08:02:44;;;;;;;9.52;3.40;;;;;;;14.89;30.81;99623.38;3412900;29;20039;-75
2022/02/14 08:04:25;;;;;;;3.88;2.50;;;;;;;14.99;30.72;99631.72;3412622;29;20046;-76